createdAt,value
2022-11-10T00:02:31.545Z,97785.50
2022-11-10T00:05:45.520Z,97789.00
2022-11-10T00:09:48.658Z,97794.47
2022-11-10T00:12:35.783Z,97799.19
2022-11-10T00:15:40.243Z,97801.31
2022-11-10T00:27:25.580Z,97796.50
2022-11-10T00:30:16.735Z,97797.69
2022-11-10T00:33:03.232Z,97808.84
2022-11-10T00:35:50.414Z,97805.63
2022-11-10T00:38:37.230Z,97803.91
2022-11-10T00:41:24.340Z,97813.09
2022-11-10T00:45:07.201Z,97809.16
2022-11-10T00:49:33.507Z,97817.84
2022-11-10T00:52:20.024Z,97818.81
2022-11-10T00:55:07.483Z,97821.63
2022-11-10T00:58:22.439Z,97821.69
2022-11-10T01:01:11.152Z,97820.06
2022-11-10T01:04:47.818Z,97826.94
2022-11-10T01:07:40.399Z,97823.41
2022-11-10T01:10:27.700Z,97827.66
2022-11-10T01:14:30.720Z,97848.47
2022-11-10T01:17:19.011Z,97832.34
2022-11-10T01:20:34.777Z,97833.97
2022-11-10T01:23:21.841Z,97832.06
2022-11-10T01:26:35.274Z,97837.00
2022-11-10T01:30:43.713Z,97839.44
2022-11-10T01:33:32.292Z,97842.91
2022-11-10T01:36:19.051Z,97837.47
2022-11-10T01:39:06.141Z,97836.75
2022-11-10T01:43:11.736Z,97842.06
2022-11-10T01:47:40.479Z,97857.38
2022-11-10T01:50:34.560Z,97862.25
2022-11-10T01:53:24.981Z,97867.50
2022-11-10T01:56:13.227Z,97871.22
2022-11-10T01:59:02.472Z,97874.00
2022-11-10T02:02:43.905Z,97874.50
2022-11-10T02:05:32.280Z,97872.81
2022-11-10T02:08:19.868Z,97872.75
2022-11-10T02:11:37.231Z,97870.97
2022-11-10T02:14:24.180Z,97880.50
2022-11-10T02:17:37.499Z,97877.53
2022-11-10T02:20:24.311Z,97881.88
2022-11-10T02:27:30.815Z,97884.88
2022-11-10T02:30:18.278Z,97875.91
2022-11-10T02:33:30.336Z,97876.09
2022-11-10T02:36:17.308Z,97882.53
2022-11-10T02:39:55.351Z,97885.09
2022-11-10T02:44:22.541Z,97888.34
2022-11-10T02:47:10.458Z,97881.28
2022-11-10T02:49:57.057Z,97888.69
2022-11-10T02:53:37.190Z,97894.56
2022-11-10T02:58:05.546Z,97893.78
2022-11-10T03:01:44.944Z,97903.44
2022-11-10T03:13:59.923Z,97920.75
2022-11-10T03:17:18.322Z,97933.69
2022-11-10T03:20:06.217Z,97936.25
2022-11-10T03:22:53.088Z,97937.31
2022-11-10T03:26:08.255Z,97934.59
2022-11-10T03:30:36.578Z,97940.31
2022-11-10T03:38:45.875Z,97951.94
2022-11-10T03:41:39.909Z,97955.53
2022-11-10T04:16:55.477Z,97989.31
2022-11-10T04:21:21.548Z,97985.97
2022-11-10T04:24:59.000Z,97980.63
2022-11-10T04:42:53.718Z,98003.50
2022-11-10T04:47:25.251Z,98000.88
2022-11-10T04:50:13.334Z,98010.50
2022-11-10T04:53:00.423Z,98017.59
2022-11-10T04:57:01.915Z,98013.19
2022-11-10T05:01:30.655Z,98020.19
2022-11-10T05:04:17.386Z,98019.75
2022-11-10T05:13:31.659Z,98034.34
2022-11-10T05:16:19.690Z,98036.22
2022-11-10T05:25:40.759Z,98040.28
2022-11-10T05:35:01.673Z,98045.91
2022-11-10T05:37:50.115Z,98053.28
2022-11-10T05:40:37.160Z,98057.72
2022-11-10T05:58:35.991Z,98091.56
2022-11-10T06:03:04.119Z,98092.47
2022-11-10T06:10:24.791Z,98101.38
2022-11-10T06:13:38.002Z,98112.69
2022-11-10T06:16:24.737Z,98115.72
2022-11-10T06:19:13.978Z,98125.97
2022-11-10T06:43:42.092Z,98170.09
2022-11-10T06:48:10.746Z,98170.72
2022-11-10T06:51:24.584Z,98178.81
2022-11-10T06:54:15.896Z,98185.13
2022-11-10T06:57:33.000Z,98201.03
2022-11-10T07:02:00.513Z,98204.09
2022-11-10T07:04:51.772Z,98210.94
2022-11-10T07:07:45.800Z,98223.34
2022-11-10T07:10:33.298Z,98224.91
2022-11-10T07:13:46.566Z,98224.19
2022-11-10T07:16:33.475Z,98227.84
2022-11-10T07:19:48.663Z,98234.06
2022-11-10T07:22:36.307Z,98229.94
2022-11-10T07:26:14.780Z,98236.81
2022-11-10T07:30:42.489Z,98240.69
2022-11-10T07:33:31.016Z,98252.25
2022-11-10T07:37:34.375Z,98243.56
2022-11-10T07:45:21.120Z,98247.66
2022-11-10T07:56:48.587Z,98267.78
2022-11-10T08:01:17.049Z,98264.66
2022-11-10T08:04:31.702Z,98273.09
2022-11-10T08:07:21.889Z,98273.22
2022-11-10T08:11:02.321Z,98280.25
2022-11-10T08:15:30.937Z,98284.38
2022-11-10T08:18:29.672Z,98290.31
2022-11-10T08:21:27.870Z,98297.28
2022-11-10T08:24:16.170Z,98299.94
2022-11-10T08:27:03.247Z,98301.00
2022-11-10T08:29:51.841Z,98306.56
2022-11-10T08:32:40.029Z,98312.09
2022-11-10T08:36:17.737Z,98324.09
2022-11-10T08:39:06.489Z,98324.91
2022-11-10T08:41:56.243Z,98339.06
2022-11-10T08:44:43.799Z,98342.88
2022-11-10T08:47:35.039Z,98348.88
2022-11-10T08:50:49.929Z,98358.91
2022-11-10T08:53:37.273Z,98368.16
2022-11-10T08:56:26.788Z,98369.34
2022-11-10T08:59:13.561Z,98373.22
2022-11-10T09:02:00.367Z,98391.38
2022-11-10T09:04:48.400Z,98403.38
2022-11-10T09:07:38.016Z,98402.75
2022-11-10T09:10:52.180Z,98416.47
2022-11-10T09:13:42.161Z,98419.78
2022-11-10T09:41:44.147Z,98472.91
2022-11-10T09:46:20.327Z,98478.09
2022-11-10T10:09:53.877Z,98497.06
2022-11-10T10:14:23.208Z,98499.69
2022-11-10T10:27:30.417Z,98506.84
2022-11-10T10:32:02.228Z,98502.63
2022-11-10T10:45:22.098Z,98515.00
2022-11-10T10:59:15.222Z,98517.44
2022-11-10T11:02:05.414Z,98516.69
2022-11-10T11:14:16.909Z,98525.66
2022-11-10T11:22:19.396Z,98529.09
2022-11-10T11:26:21.320Z,98532.53
2022-11-10T11:30:02.142Z,98536.81
2022-11-10T11:34:31.039Z,98535.81
2022-11-10T12:00:27.053Z,98561.00
2022-11-10T12:04:18.758Z,98556.56
2022-11-10T12:07:41.236Z,98549.50
2022-11-10T12:11:46.480Z,98562.13
2022-11-10T12:46:59.888Z,98573.56
2022-11-10T12:50:40.951Z,98581.31
2022-11-10T13:03:57.590Z,98597.13
2022-11-10T13:07:13.671Z,98601.56
2022-11-10T13:14:49.963Z,98611.19
2022-11-10T13:19:02.024Z,98609.63
2022-11-10T13:22:10.592Z,98608.75
2022-11-10T13:26:11.138Z,98599.50
2022-11-10T13:53:55.209Z,98617.97
2022-11-10T14:06:25.707Z,98618.13
2022-11-10T14:09:20.765Z,98619.91
2022-11-10T14:12:17.073Z,98619.06
2022-11-10T14:15:06.860Z,98624.81
2022-11-10T14:17:55.152Z,98629.00
2022-11-10T14:20:43.745Z,98635.94
2022-11-10T14:23:36.174Z,98643.72
2022-11-10T14:26:27.272Z,98652.53
2022-11-10T14:30:07.142Z,98657.41
2022-11-10T14:42:23.221Z,98669.13
2022-11-10T14:49:23.085Z,98669.88
2022-11-10T14:53:48.868Z,98670.00
2022-11-10T15:00:51.973Z,98659.72
2022-11-10T15:10:16.316Z,98677.97
2022-11-10T15:13:59.452Z,98669.97
2022-11-10T15:21:06.210Z,98686.59
2022-11-10T15:29:34.888Z,98699.56
2022-11-10T15:32:59.442Z,98709.22
2022-11-10T15:35:49.204Z,98713.66
2022-11-10T15:40:24.004Z,98718.59
2022-11-10T15:44:52.363Z,98712.84
2022-11-10T15:47:39.730Z,98711.56
2022-11-10T15:56:17.371Z,98720.75
2022-11-10T16:00:43.307Z,98721.56
2022-11-10T16:03:56.821Z,98734.09
2022-11-10T16:08:26.536Z,98745.47
2022-11-10T16:11:43.405Z,98759.63
2022-11-10T16:16:12.274Z,98758.41
2022-11-10T16:18:59.210Z,98761.78
2022-11-10T16:23:27.370Z,98765.44
2022-11-10T16:26:18.856Z,98766.56
2022-11-10T16:39:15.545Z,98783.19
2022-11-10T16:47:25.326Z,98792.69
2022-11-10T16:51:58.944Z,98808.25
2022-11-10T16:59:14.670Z,98811.72
2022-11-10T17:03:43.725Z,98822.69
2022-11-10T17:06:32.079Z,98819.09
2022-11-10T17:10:15.271Z,98825.09
2022-11-10T17:14:43.254Z,98828.31
2022-11-10T17:27:08.223Z,98843.25
2022-11-10T17:34:24.434Z,98848.81
2022-11-10T17:43:04.805Z,98876.25
2022-11-10T17:47:33.748Z,98879.84
2022-11-10T18:10:21.278Z,98907.44
2022-11-10T18:23:12.704Z,98918.72
2022-11-10T18:27:36.436Z,98925.31
2022-11-10T18:49:22.376Z,98938.28
2022-11-10T18:53:51.861Z,98942.13
2022-11-10T19:01:09.081Z,98952.28
2022-11-10T19:04:29.160Z,98951.81
2022-11-10T19:08:56.717Z,98959.88
2022-11-10T19:12:36.432Z,98970.69
2022-11-10T19:17:03.797Z,98984.75
2022-11-10T19:40:10.003Z,99013.31
2022-11-10T19:43:03.124Z,99011.47
2022-11-10T19:52:12.613Z,99006.75
2022-11-10T20:09:26.046Z,99012.91
2022-11-10T20:22:01.643Z,99038.03
2022-11-10T20:26:29.990Z,99036.09
2022-11-10T20:35:03.379Z,99048.22
2022-11-10T20:37:54.728Z,99056.28
